Accueil
METAR-TAF:

METAR-TAF

Aéroports :

Agen, France

Aéroport Agen-La Garenne

latitude: 44-11N, longitude: 000-36E, altitude: 61 m

Observation

Le bulletin a été fait il y a 22 minutes, à 21:00 UTC
Vent 2 kt de ouest
Température 5°C
Humidité 81%
Pression 1017 hPa
Visibilité 10 km ou plus
pas de nuages en-dessous de 1500 mètres et pas de cumulonimbus.

METAR: LFBA 262100Z AUTO 26002KT CAVOK 05/02 Q1017

Heure: 23:22 (21:22 UTC)

Prévision

Le bulletin a été fait il y a 7 heures et 22 minutes, à 14:00 UTC
Prévision valable du 26 à 15 UTC au 26 à 24 UTC
Vent 8 kt de nord-ouest
Visibilité 10 km ou plus
Nuages fragmentés à une hauteur de 2500 ft
Nuages fragmentés à une hauteur de 10000 ft
Evoluant progressivement
du 26 à 21 UTC au 26 à 23 UTC
Visibilité 10 km ou plus
pas de nuages en-dessous de 1500 mètres et pas de cumulonimbus.

TAF: LFBA 261400Z 2615/2624 32008KT 9999 BKN025 BKN100 BECMG 2621/2623 CAVOK

Observations et prévisions météorologiques de plus de 4000 aéroports (messages METAR et TAF).

Les stations disponibles sont représentées par des disques jaunes et rouges sur la carte.

Passer la souris dessus pour voir le nom de la station.

Cliquer dessus pour voir les observations et prévisions météorologiques.

Pour changer de carte: cliquez sur les boutons verts avec une croix noire pour zoomer, sur le bouton vert avec un tiret pour effectuer un zoom arrière, ou sur les flèches vertes pour les cartes adjacentes.


METAR-TAF: